Time;durP1;ratioP1;P1;durP2;ratioP2;P2;SDS_P1;SDS_P2;PMS_P1;PMS_P2;Temp;Humidity;BMP_temperature;BMP_pressure;BME280_temperature;BME280_humidity;BME280_pressure;Samples;Min_cycle;Max_cycle;Signal;HPM_P1;HPM_P2
2023/10/12 00:00:33;;;;;;;5.05;4.00;;;17.90;73.10;;;;;;945877;149;28359;-76
2023/10/12 00:02:59;;;;;;;6.12;3.62;;;17.90;73.20;;;;;;947128;150;27479;-76
2023/10/12 00:05:27;;;;;;;8.43;4.22;;;18.00;73.20;;;;;;948344;150;27313;-76
2023/10/12 00:07:54;;;;;;;5.90;3.22;;;18.00;73.20;;;;;;949448;150;27241;-76
2023/10/12 00:12:46;;;;;;;5.78;4.00;;;18.00;73.60;;;;;;950329;150;27582;-76
2023/10/12 00:17:47;;;;;;;6.42;3.77;;;18.00;73.40;;;;;;948476;150;27353;-76
2023/10/12 00:23:10;;;;;;;6.67;3.95;;;18.10;73.40;;;;;;950049;150;27403;-76
2023/10/12 00:25:54;;;;;;;5.10;3.95;;;18.00;73.30;;;;;;951460;147;27365;-76
2023/10/12 00:28:16;;;;;;;4.90;3.58;;;18.00;73.20;;;;;;949122;149;27373;-76
2023/10/12 00:30:41;;;;;;;5.72;4.30;;;18.00;73.30;;;;;;948797;149;27304;-76
2023/10/12 00:33:08;;;;;;;8.33;3.85;;;18.00;73.50;;;;;;951426;148;27308;-76
2023/10/12 00:35:37;;;;;;;9.78;4.20;;;18.00;73.70;;;;;;951105;148;27307;-76
2023/10/12 00:38:17;;;;;;;4.45;3.70;;;17.90;73.90;;;;;;950839;150;27450;-76
2023/10/12 00:40:33;;;;;;;6.22;3.85;;;17.90;74.00;;;;;;951980;148;27347;-76
2023/10/12 00:43:00;;;;;;;6.78;3.77;;;17.90;74.00;;;;;;948985;150;28489;-76
2023/10/12 00:45:34;;;;;;;5.85;3.17;;;17.90;74.20;;;;;;949407;150;27390;-76
2023/10/12 00:48:06;;;;;;;8.63;3.65;;;17.90;74.20;;;;;;949737;149;27360;-76
2023/10/12 00:50:29;;;;;;;6.80;3.77;;;17.90;74.20;;;;;;949525;149;27905;-76
2023/10/12 00:52:58;;;;;;;5.53;3.52;;;17.90;74.30;;;;;;950728;148;27292;-76
2023/10/12 00:55:21;;;;;;;7.37;3.60;;;17.90;74.40;;;;;;951808;149;27885;-76
2023/10/12 00:57:50;;;;;;;6.55;4.20;;;17.90;74.60;;;;;;950750;148;27331;-76
2023/10/12 01:00:15;;;;;;;7.92;4.62;;;17.80;74.60;;;;;;948117;150;27263;-76
2023/10/12 01:02:41;;;;;;;8.53;4.42;;;17.80;74.70;;;;;;950219;147;27430;-76
2023/10/12 01:05:07;;;;;;;3.67;3.20;;;17.80;74.90;;;;;;950554;150;27392;-76
2023/10/12 01:07:36;;;;;;;8.88;3.75;;;17.70;74.90;;;;;;949124;150;27421;-76
2023/10/12 01:10:09;;;;;;;4.97;3.77;;;17.70;75.00;;;;;;950249;150;27335;-76
2023/10/12 01:12:30;;;;;;;5.87;3.33;;;17.70;75.30;;;;;;951228;148;27433;-76
2023/10/12 01:14:57;;;;;;;3.98;3.50;;;17.70;75.50;;;;;;950733;148;27395;-76
2023/10/12 01:17:25;;;;;;;5.87;3.80;;;17.70;75.70;;;;;;950539;148;27255;-76
2023/10/12 01:19:51;;;;;;;5.75;3.83;;;17.70;76.00;;;;;;949685;150;27318;-76
2023/10/12 01:22:25;;;;;;;6.17;3.50;;;17.70;76.10;;;;;;950470;149;27336;-76
2023/10/12 01:24:58;;;;;;;5.20;3.55;;;17.60;76.10;;;;;;949148;148;27368;-76
2023/10/12 01:27:13;;;;;;;5.83;3.20;;;17.70;76.30;;;;;;950951;150;27668;-76
2023/10/12 01:29:36;;;;;;;4.30;3.17;;;17.70;76.30;;;;;;951612;149;27427;-76
2023/10/12 01:34:38;;;;;;;4.40;3.08;;;17.80;76.80;;;;;;946811;149;27383;-76
2023/10/12 01:37:26;;;;;;;9.28;3.50;;;17.90;77.00;;;;;;944257;149;27373;-76
2023/10/12 01:39:57;;;;;;;5.97;2.95;;;18.00;77.00;;;;;;938556;149;27525;-76
2023/10/12 01:42:24;;;;;;;11.45;4.05;;;18.10;76.80;;;;;;945747;149;27465;-76
2023/10/12 01:44:48;;;;;;;5.42;3.20;;;18.20;76.80;;;;;;939638;149;27430;-76
2023/10/12 01:47:15;;;;;;;4.60;3.00;;;18.40;76.70;;;;;;944237;149;27353;-76
2023/10/12 01:49:45;;;;;;;7.05;4.28;;;18.50;76.60;;;;;;961227;146;27357;-75
2023/10/12 01:52:08;;;;;;;3.95;2.95;;;18.60;76.30;;;;;;951537;149;27314;-76
2023/10/12 01:54:42;;;;;;;4.87;3.05;;;18.80;77.00;;;;;;952199;148;27333;-76
2023/10/12 01:57:01;;;;;;;6.83;2.83;;;19.00;75.90;;;;;;949060;148;27419;-76
2023/10/12 01:59:28;;;;;;;4.78;3.37;;;19.10;75.50;;;;;;949022;150;27423;-76
2023/10/12 02:02:06;;;;;;;5.45;2.85;;;19.20;75.10;;;;;;949651;148;27437;-76
2023/10/12 02:04:24;;;;;;;3.10;2.80;;;19.30;74.90;;;;;;944352;150;27399;-76
2023/10/12 02:06:51;;;;;;;6.17;2.95;;;19.40;74.50;;;;;;937729;149;27309;-76
2023/10/12 02:09:22;;;;;;;4.87;3.15;;;19.50;74.20;;;;;;939065;151;27465;-76
2023/10/12 02:11:45;;;;;;;6.47;2.72;;;19.60;73.90;;;;;;938375;150;27397;-76
2023/10/12 02:14:15;;;;;;;5.85;3.00;;;19.70;73.60;;;;;;936550;149;27882;-76
2023/10/12 02:16:39;;;;;;;7.05;3.58;;;19.70;73.30;;;;;;937500;151;27464;-76
2023/10/12 02:19:07;;;;;;;8.70;3.50;;;19.80;73.10;;;;;;937666;149;27470;-76
2023/10/12 02:21:37;;;;;;;3.12;2.58;;;19.90;72.90;;;;;;938010;149;27392;-76
2023/10/12 02:24:13;;;;;;;3.85;2.90;;;19.90;72.70;;;;;;937197;149;27397;-76
2023/10/12 02:31:34;;;;;;;4.78;3.12;;;20.00;72.10;;;;;;937359;149;27305;-76
2023/10/12 02:34:01;;;;;;;7.03;3.15;;;20.00;71.90;;;;;;937118;149;27288;-76
2023/10/12 02:36:28;;;;;;;5.92;3.20;;;20.00;71.70;;;;;;938461;149;27310;-76
2023/10/12 02:38:53;;;;;;;4.30;3.42;;;20.00;71.60;;;;;;937400;151;27285;-76
2023/10/12 02:41:24;;;;;;;3.12;2.83;;;20.00;71.60;;;;;;936952;149;27419;-76
2023/10/12 02:43:50;;;;;;;4.90;3.10;;;20.00;71.60;;;;;;938233;149;27320;-76
2023/10/12 02:46:21;;;;;;;4.28;3.37;;;20.00;71.60;;;;;;939072;151;27335;-76
2023/10/12 02:48:46;;;;;;;4.65;3.47;;;20.00;71.60;;;;;;935017;149;27340;-76
2023/10/12 02:51:06;;;;;;;3.62;2.65;;;20.00;71.60;;;;;;937800;149;27437;-81
2023/10/12 02:53:39;;;;;;;5.58;2.90;;;20.00;71.60;;;;;;937167;151;27320;-82
2023/10/12 02:56:02;;;;;;;5.33;2.90;;;20.10;71.60;;;;;;938214;149;27413;-76
2023/10/12 02:58:29;;;;;;;5.92;3.30;;;20.10;71.40;;;;;;938891;151;27324;-76
2023/10/12 03:00:55;;;;;;;7.15;3.12;;;20.10;71.40;;;;;;937957;149;27426;-74
2023/10/12 03:04:10;;;;;;;3.45;3.12;;;20.20;71.30;;;;;;936497;149;27417;-76
2023/10/12 03:05:49;;;;;;;8.00;3.20;;;20.20;71.20;;;;;;935265;148;27785;-74
2023/10/12 03:08:16;;;;;;;3.65;2.80;;;20.20;71.10;;;;;;942468;148;27319;-74
2023/10/12 03:10:55;;;;;;;4.58;3.40;;;20.20;71.00;;;;;;940749;151;27368;-73
2023/10/12 03:13:19;;;;;;;4.80;3.05;;;20.20;70.90;;;;;;939846;151;27272;-73
2023/10/12 03:15:56;;;;;;;4.15;3.05;;;20.20;70.80;;;;;;940608;151;27293;-76
2023/10/12 03:18:13;;;;;;;5.42;3.10;;;20.20;70.70;;;;;;942467;148;27324;-73
2023/10/12 03:20:52;;;;;;;3.35;2.85;;;20.20;70.70;;;;;;943460;149;27317;-75
2023/10/12 03:23:19;;;;;;;4.72;3.27;;;20.20;70.60;;;;;;942041;148;27328;-73
2023/10/12 03:25:43;;;;;;;3.62;2.75;;;20.20;70.60;;;;;;942352;151;27358;-74
2023/10/12 03:28:11;;;;;;;7.12;3.72;;;20.20;70.60;;;;;;942613;151;27432;-77
2023/10/12 03:30:43;;;;;;;4.35;3.30;;;20.30;70.60;;;;;;941048;148;27273;-74
2023/10/12 03:33:09;;;;;;;5.33;2.75;;;20.30;70.60;;;;;;943877;148;27311;-73
2023/10/12 03:35:43;;;;;;;4.92;2.77;;;20.30;70.50;;;;;;943896;151;27410;-73
2023/10/12 03:38:00;;;;;;;5.50;3.15;;;20.40;70.50;;;;;;943752;150;27417;-75
2023/10/12 03:41:46;;;;;;;7.67;3.17;;;20.40;70.40;;;;;;941944;149;27257;-73
2023/10/12 03:42:52;;;;;;;3.50;2.65;;;20.40;70.30;;;;;;934951;151;27370;-75
2023/10/12 03:45:38;;;;;;;4.15;2.83;;;20.40;70.20;;;;;;943658;148;27424;-77
2023/10/12 03:48:14;;;;;;;5.60;3.02;;;20.50;70.20;;;;;;942070;151;27352;-73
2023/10/12 03:50:51;;;;;;;4.28;3.35;;;20.40;70.70;;;;;;941322;149;27337;-73
2023/10/12 03:52:59;;;;;;;6.60;3.40;;;20.50;70.00;;;;;;939214;151;27699;-73
2023/10/12 03:55:27;;;;;;;4.78;3.08;;;20.40;69.90;;;;;;940786;149;27411;-73
2023/10/12 03:58:06;;;;;;;4.42;3.15;;;20.40;69.90;;;;;;941806;148;27319;-76
2023/10/12 04:00:47;;;;;;;5.22;3.25;;;20.40;69.90;;;;;;942301;148;27425;-75
2023/10/12 04:03:18;;;;;;;3.08;2.77;;;20.40;69.80;;;;;;941441;149;27431;-73
2023/10/12 04:05:50;;;;;;;6.83;3.27;;;20.40;69.80;;;;;;940273;150;27435;-74
2023/10/12 04:08:59;;;;;;;5.22;2.85;;;20.40;69.90;;;;;;936152;151;28006;-76
2023/10/12 04:13:08;;;;;;;8.23;3.27;;;20.30;69.90;;;;;;915622;149;27309;-76
2023/10/12 04:16:05;;;;;;;4.62;3.00;;;20.30;69.90;;;;;;937444;151;27307;-76
2023/10/12 04:18:07;;;;;;;4.75;2.90;;;20.30;70.00;;;;;;935619;149;27433;-76
2023/10/12 04:20:30;;;;;;;4.25;3.22;;;20.30;70.00;;;;;;938742;149;27437;-76
2023/10/12 04:28:16;;;;;;;5.28;2.80;;;20.30;70.10;;;;;;938820;149;27409;-76
2023/10/12 04:30:43;;;;;;;5.20;3.00;;;20.30;70.10;;;;;;937774;151;27441;-76
2023/10/12 04:33:13;;;;;;;3.27;2.98;;;20.30;70.20;;;;;;941349;149;27252;-76
2023/10/12 04:38:27;;;;;;;6.28;2.98;;;20.30;70.10;;;;;;940534;149;27382;-76
2023/10/12 04:41:13;;;;;;;4.17;3.08;;;20.30;70.00;;;;;;938148;151;27328;-76
2023/10/12 04:43:23;;;;;;;6.25;3.00;;;20.30;70.00;;;;;;938063;149;27313;-76
2023/10/12 04:48:30;;;;;;;7.33;3.22;;;20.30;70.20;;;;;;908878;155;27367;-76
2023/10/12 04:51:18;;;;;;;3.47;3.08;;;20.30;70.20;;;;;;908657;154;27293;-76
2023/10/12 04:53:18;;;;;;;6.25;3.05;;;20.30;70.20;;;;;;911712;151;27460;-76
2023/10/12 04:55:47;;;;;;;6.55;3.12;;;20.30;69.70;;;;;;939112;149;27455;-76
2023/10/12 04:58:17;;;;;;;4.90;3.50;;;20.30;70.20;;;;;;939354;149;27933;-76
2023/10/12 05:01:28;;;;;;;4.00;2.77;;;20.30;70.20;;;;;;940399;149;27337;-76
2023/10/12 05:03:23;;;;;;;7.45;3.25;;;20.30;70.20;;;;;;927726;151;27325;-76
2023/10/12 05:08:13;;;;;;;4.15;2.98;;;20.30;70.30;;;;;;898392;156;27440;-76
2023/10/12 05:13:06;;;;;;;4.50;3.02;;;20.20;70.10;;;;;;942755;149;27481;-77
2023/10/12 05:16:18;;;;;;;7.55;2.80;;;20.20;70.20;;;;;;943390;149;27357;-76
2023/10/12 05:17:59;;;;;;;4.22;3.30;;;20.20;70.20;;;;;;934690;149;27360;-77
2023/10/12 05:20:28;;;;;;;5.97;2.83;;;20.20;70.20;;;;;;943049;149;27422;-79
2023/10/12 05:22:52;;;;;;;4.50;3.12;;;20.20;70.20;;;;;;942826;149;27842;-84
2023/10/12 05:25:19;;;;;;;3.37;3.08;;;20.20;70.30;;;;;;943014;149;27375;-81
2023/10/12 05:28:08;;;;;;;5.67;2.87;;;20.20;70.40;;;;;;944281;149;27334;-78
2023/10/12 05:30:19;;;;;;;3.77;2.80;;;20.20;70.30;;;;;;939644;149;27372;-83
2023/10/12 05:32:48;;;;;;;5.78;3.00;;;20.20;70.50;;;;;;942588;149;27397;-84
2023/10/12 05:35:16;;;;;;;5.25;3.05;;;20.10;70.40;;;;;;941247;149;27461;-84
2023/10/12 05:37:49;;;;;;;4.35;3.22;;;20.10;70.50;;;;;;942252;149;27857;-84
2023/10/12 05:40:18;;;;;;;3.55;3.02;;;20.10;70.50;;;;;;943894;149;27382;-83
2023/10/12 05:42:50;;;;;;;4.03;2.70;;;20.10;70.50;;;;;;942695;149;27448;-84
2023/10/12 05:45:30;;;;;;;7.40;3.50;;;20.00;70.60;;;;;;940585;149;27361;-76
2023/10/12 05:47:53;;;;;;;3.50;2.95;;;20.00;70.70;;;;;;941036;149;27524;-84
2023/10/12 05:50:16;;;;;;;3.85;3.22;;;20.00;70.70;;;;;;941878;149;27497;-75
2023/10/12 05:52:43;;;;;;;4.53;3.30;;;20.00;70.80;;;;;;942860;149;28076;-83
2023/10/12 05:55:19;;;;;;;3.80;2.58;;;20.00;71.00;;;;;;941197;149;27371;-83
2023/10/12 05:57:36;;;;;;;5.95;3.37;;;19.90;71.00;;;;;;940978;149;28110;-83
2023/10/12 06:00:09;;;;;;;7.37;3.80;;;19.90;71.10;;;;;;941259;149;27345;-79
2023/10/12 06:02:29;;;;;;;6.55;3.20;;;19.90;71.20;;;;;;941977;149;28285;-83
2023/10/12 06:04:56;;;;;;;4.53;2.90;;;19.90;71.30;;;;;;942105;149;27364;-84
2023/10/12 06:07:22;;;;;;;3.42;3.00;;;19.90;71.40;;;;;;941815;149;27410;-82
2023/10/12 06:09:52;;;;;;;4.60;3.42;;;19.90;71.50;;;;;;943060;149;27373;-82
2023/10/12 06:12:21;;;;;;;4.35;3.10;;;19.90;71.60;;;;;;943593;149;27262;-82
2023/10/12 06:14:52;;;;;;;7.33;3.58;;;19.90;71.70;;;;;;943044;149;27476;-79
2023/10/12 06:17:27;;;;;;;3.77;3.22;;;19.90;71.80;;;;;;939729;149;27357;-77
2023/10/12 06:19:36;;;;;;;3.72;3.05;;;19.90;71.90;;;;;;940007;149;27294;-84
2023/10/12 06:24:43;;;;;;;6.72;3.58;;;19.90;72.50;;;;;;901281;149;28181;-79
2023/10/12 06:29:48;;;;;;;4.75;2.80;;;19.90;72.90;;;;;;939416;149;27319;-78
2023/10/12 06:32:25;;;;;;;4.05;3.30;;;19.90;73.00;;;;;;942030;149;27337;-79
2023/10/12 06:34:44;;;;;;;5.60;3.45;;;19.90;73.10;;;;;;940151;149;28821;-80
2023/10/12 06:42:44;;;;;;;4.20;2.72;;;19.90;73.60;;;;;;940071;149;27280;-80
2023/10/12 06:45:08;;;;;;;5.20;3.47;;;19.90;73.80;;;;;;940245;149;27519;-77
2023/10/12 06:47:42;;;;;;;5.03;3.30;;;19.90;73.90;;;;;;942682;149;27481;-80
2023/10/12 06:50:00;;;;;;;4.87;3.30;;;19.90;74.10;;;;;;937640;149;27301;-78
2023/10/12 06:52:27;;;;;;;6.53;3.22;;;19.90;74.30;;;;;;942531;149;27460;-80
2023/10/12 06:54:59;;;;;;;3.70;3.00;;;19.90;74.10;;;;;;942282;149;27324;-80
2023/10/12 07:02:33;;;;;;;5.50;2.95;;;19.90;74.10;;;;;;943156;149;27395;-79
2023/10/12 07:04:57;;;;;;;3.58;3.17;;;19.90;74.20;;;;;;942087;149;27826;-76
2023/10/12 07:07:41;;;;;;;6.30;3.22;;;19.90;74.30;;;;;;942034;149;27485;-80
2023/10/12 07:12:48;;;;;;;5.75;3.10;;;20.00;74.80;;;;;;940391;149;27354;-79
2023/10/12 07:15:12;;;;;;;6.20;3.50;;;20.00;74.70;;;;;;941301;149;27377;-80
2023/10/12 07:17:48;;;;;;;5.83;3.55;;;20.10;74.80;;;;;;941381;148;27460;-79
2023/10/12 07:20:25;;;;;;;6.10;3.02;;;20.20;74.90;;;;;;939702;149;27381;-75
2023/10/12 07:22:36;;;;;;;5.10;3.02;;;20.30;75.00;;;;;;940440;149;27344;-80
2023/10/12 07:25:01;;;;;;;6.20;3.20;;;20.40;74.90;;;;;;941655;149;27450;-78
2023/10/12 07:27:29;;;;;;;7.78;3.10;;;20.50;74.90;;;;;;944084;149;27470;-75
2023/10/12 07:32:41;;;;;;;3.22;2.92;;;20.70;74.80;;;;;;941045;149;28394;-80
2023/10/12 07:35:18;;;;;;;6.15;3.20;;;20.80;74.60;;;;;;941490;149;27483;-77
2023/10/12 07:37:44;;;;;;;4.05;3.20;;;20.90;74.20;;;;;;943287;149;27376;-79
2023/10/12 07:40:35;;;;;;;3.67;3.27;;;20.90;73.90;;;;;;942761;149;27455;-76
2023/10/12 07:42:41;;;;;;;3.47;2.87;;;21.00;74.00;;;;;;940642;149;27405;-76
2023/10/12 07:45:07;;;;;;;5.15;3.50;;;21.10;73.80;;;;;;942585;149;27384;-76
2023/10/12 07:47:42;;;;;;;4.03;3.20;;;21.10;73.70;;;;;;940507;149;27438;-76
2023/10/12 07:50:11;;;;;;;3.90;2.90;;;21.10;73.60;;;;;;939462;149;27378;-76
2023/10/12 07:52:38;;;;;;;8.03;3.22;;;21.20;73.90;;;;;;941435;149;27402;-76
2023/10/12 07:54:59;;;;;;;4.90;3.37;;;21.10;73.70;;;;;;941266;149;27474;-76
2023/10/12 07:57:35;;;;;;;8.03;2.98;;;21.20;73.40;;;;;;941730;149;27366;-76
2023/10/12 07:59:59;;;;;;;3.50;2.75;;;21.20;73.40;;;;;;938709;148;27393;-76
2023/10/12 08:03:18;;;;;;;5.80;3.50;;;21.20;73.40;;;;;;941796;149;27356;-76
2023/10/12 08:04:58;;;;;;;4.35;2.90;;;21.20;73.50;;;;;;931113;149;27375;-76
2023/10/12 08:07:26;;;;;;;4.33;3.00;;;21.20;73.40;;;;;;942435;148;27409;-76
2023/10/12 08:09:51;;;;;;;5.67;3.20;;;21.20;73.40;;;;;;941486;149;27381;-76
2023/10/12 08:12:26;;;;;;;4.20;3.55;;;21.20;73.50;;;;;;938821;149;27432;-76
2023/10/12 08:15:07;;;;;;;4.25;3.10;;;21.20;73.50;;;;;;937315;149;27461;-76
2023/10/12 08:17:33;;;;;;;4.62;3.25;;;21.20;73.80;;;;;;943164;149;27310;-76
2023/10/12 08:22:32;;;;;;;7.08;2.85;;;21.30;74.20;;;;;;924703;149;27360;-76
2023/10/12 08:24:59;;;;;;;4.05;3.37;;;21.30;74.20;;;;;;943615;149;27431;-76
2023/10/12 08:27:39;;;;;;;5.05;3.50;;;21.30;74.60;;;;;;940676;149;27345;-76
2023/10/12 08:37:36;;;;;;;6.85;3.70;;;21.40;75.30;;;;;;943912;149;27367;-76
2023/10/12 08:45:15;;;;;;;5.87;3.77;;;21.50;76.30;;;;;;939530;149;27390;-76
2023/10/12 08:52:33;;;;;;;6.60;4.30;;;21.70;76.20;;;;;;941382;149;27428;-76
2023/10/12 08:55:11;;;;;;;6.22;3.80;;;21.70;75.90;;;;;;943180;149;27279;-76
2023/10/12 08:57:43;;;;;;;5.60;4.37;;;21.70;75.70;;;;;;940433;149;27317;-76
2023/10/12 09:02:52;;;;;;;5.83;3.98;;;21.70;75.90;;;;;;941808;149;27390;-76
2023/10/12 09:05:15;;;;;;;5.28;3.37;;;21.70;76.10;;;;;;940381;149;27305;-76
2023/10/12 09:07:45;;;;;;;6.97;3.15;;;21.70;76.50;;;;;;941951;149;27348;-76
2023/10/12 09:10:28;;;;;;;9.48;4.30;;;21.60;76.70;;;;;;940623;149;27414;-76
2023/10/12 09:12:39;;;;;;;6.20;3.40;;;21.60;76.50;;;;;;939848;149;27366;-76
2023/10/12 09:15:08;;;;;;;4.65;3.35;;;21.60;76.90;;;;;;941559;149;27263;-76
2023/10/12 09:17:30;;;;;;;6.03;3.98;;;21.60;77.50;;;;;;941038;149;27362;-76
2023/10/12 09:22:40;;;;;;;4.70;3.58;;;21.60;78.00;;;;;;942648;149;27429;-76
2023/10/12 09:25:09;;;;;;;4.53;3.58;;;21.60;78.60;;;;;;941202;149;27351;-76
2023/10/12 09:27:48;;;;;;;4.35;3.33;;;21.60;79.60;;;;;;941279;149;27436;-76
2023/10/12 09:30:15;;;;;;;4.97;3.75;;;21.60;80.10;;;;;;941365;149;27365;-76
2023/10/12 09:32:33;;;;;;;7.87;3.70;;;21.60;80.00;;;;;;938813;149;27361;-76
2023/10/12 09:35:14;;;;;;;6.58;3.70;;;21.60;80.10;;;;;;941434;149;28014;-76
2023/10/12 09:37:44;;;;;;;5.33;3.45;;;21.60;80.40;;;;;;941926;149;27326;-76
2023/10/12 09:40:24;;;;;;;5.90;4.12;;;21.60;80.70;;;;;;942323;149;27344;-76
2023/10/12 09:42:36;;;;;;;5.42;3.95;;;21.60;80.90;;;;;;940832;149;27361;-76
2023/10/12 09:45:04;;;;;;;4.03;3.60;;;21.60;81.00;;;;;;942074;149;27358;-76
2023/10/12 09:47:43;;;;;;;3.85;3.55;;;21.60;81.20;;;;;;944533;149;27790;-76
2023/10/12 09:50:01;;;;;;;6.80;4.67;;;21.60;81.80;;;;;;939713;149;27366;-76
2023/10/12 09:52:25;;;;;;;5.30;3.58;;;21.60;82.70;;;;;;942709;149;27305;-76
2023/10/12 09:55:14;;;;;;;8.25;4.47;;;21.60;83.70;;;;;;939618;149;27364;-76
2023/10/12 09:57:36;;;;;;;3.85;3.47;;;21.60;84.00;;;;;;941779;149;27794;-76
2023/10/12 10:02:30;;;;;;;4.55;3.70;;;21.60;84.50;;;;;;904356;149;27436;-76
2023/10/12 10:05:11;;;;;;;5.10;3.90;;;21.50;84.90;;;;;;941858;149;27434;-76
2023/10/12 10:07:28;;;;;;;4.20;3.80;;;21.50;85.90;;;;;;942352;149;27306;-76
2023/10/12 10:09:54;;;;;;;5.97;3.90;;;21.60;86.20;;;;;;943654;149;27354;-76
2023/10/12 10:12:22;;;;;;;4.53;3.90;;;21.60;87.10;;;;;;942257;151;27434;-76
2023/10/12 10:14:53;;;;;;;4.15;3.75;;;21.60;87.30;;;;;;942067;151;27455;-76
2023/10/12 10:17:14;;;;;;;5.12;3.65;;;21.60;88.40;;;;;;941603;151;27385;-76
2023/10/12 10:19:43;;;;;;;7.87;4.50;;;21.60;89.60;;;;;;940076;151;27420;-76
2023/10/12 10:22:16;;;;;;;6.08;3.98;;;21.70;90.30;;;;;;940817;151;27370;-76
2023/10/12 10:24:58;;;;;;;6.53;3.98;;;21.70;90.70;;;;;;936592;151;27317;-76
2023/10/12 10:27:34;;;;;;;5.40;4.00;;;21.70;90.90;;;;;;938883;149;27499;-76
2023/10/12 10:29:56;;;;;;;5.85;4.70;;;21.80;90.10;;;;;;939056;151;27469;-76
2023/10/12 10:32:36;;;;;;;7.05;5.05;;;21.80;90.80;;;;;;940014;151;27419;-76
2023/10/12 10:34:59;;;;;;;5.15;3.98;;;21.80;91.40;;;;;;938028;151;27355;-76
2023/10/12 10:37:58;;;;;;;4.90;3.77;;;21.80;91.40;;;;;;942042;151;27365;-76
2023/10/12 10:40:48;;;;;;;6.20;4.10;;;21.80;91.60;;;;;;916420;151;28043;-76
2023/10/12 10:43:15;;;;;;;4.00;3.70;;;21.80;91.70;;;;;;938528;151;27527;-76
2023/10/12 10:45:42;;;;;;;5.08;4.20;;;21.80;91.40;;;;;;940886;151;27349;-76
2023/10/12 10:48:13;;;;;;;5.20;3.85;;;21.80;91.70;;;;;;940377;151;27373;-76
2023/10/12 10:50:40;;;;;;;6.80;4.28;;;21.80;92.20;;;;;;938198;151;27390;-76
2023/10/12 10:53:08;;;;;;;7.60;4.00;;;21.80;91.90;;;;;;941382;151;27366;-76
2023/10/12 10:55:31;;;;;;;4.28;3.80;;;21.80;91.90;;;;;;940268;151;27484;-76
2023/10/12 10:57:56;;;;;;;5.37;3.83;;;21.80;92.10;;;;;;940423;149;27341;-76
2023/10/12 11:00:33;;;;;;;5.10;4.25;;;21.80;92.30;;;;;;937657;151;27362;-76
2023/10/12 11:02:47;;;;;;;5.30;4.33;;;21.80;92.20;;;;;;939011;149;27445;-76
2023/10/12 11:05:19;;;;;;;7.28;4.83;;;21.80;92.70;;;;;;940957;151;27353;-76
2023/10/12 11:07:50;;;;;;;5.95;4.22;;;21.80;92.90;;;;;;940925;151;27431;-76
2023/10/12 11:10:19;;;;;;;5.08;4.58;;;21.80;92.80;;;;;;937299;149;27353;-76
2023/10/12 11:12:36;;;;;;;4.80;4.22;;;21.80;93.10;;;;;;937512;149;27420;-76
2023/10/12 11:15:19;;;;;;;5.67;4.15;;;21.80;92.90;;;;;;936666;149;27383;-76
2023/10/12 11:17:41;;;;;;;6.62;4.35;;;21.80;93.20;;;;;;939513;149;27378;-76
2023/10/12 11:20:08;;;;;;;5.42;4.40;;;21.80;93.20;;;;;;940222;149;27470;-76
2023/10/12 11:22:37;;;;;;;4.47;3.85;;;21.80;93.20;;;;;;938679;149;27387;-76
2023/10/12 11:25:04;;;;;;;5.80;3.98;;;21.80;93.40;;;;;;942182;149;28516;-76
2023/10/12 11:27:33;;;;;;;5.00;4.08;;;21.80;93.50;;;;;;938476;149;27605;-76
2023/10/12 11:30:18;;;;;;;5.12;4.58;;;21.80;93.10;;;;;;938930;149;27342;-76
2023/10/12 11:32:53;;;;;;;5.28;4.10;;;21.80;92.60;;;;;;938726;149;27356;-76
2023/10/12 11:35:17;;;;;;;5.53;4.08;;;21.70;92.30;;;;;;939165;149;27381;-76
2023/10/12 11:37:44;;;;;;;4.70;4.30;;;21.70;92.60;;;;;;937766;149;27333;-76
2023/10/12 11:40:10;;;;;;;5.25;4.10;;;21.70;92.90;;;;;;942423;149;27346;-76
2023/10/12 11:42:52;;;;;;;5.00;3.80;;;21.70;93.40;;;;;;938895;149;27354;-76
2023/10/12 11:45:18;;;;;;;6.25;4.50;;;21.70;93.50;;;;;;938312;149;27445;-76
2023/10/12 11:47:46;;;;;;;4.70;4.15;;;21.70;93.60;;;;;;939691;149;27455;-76
2023/10/12 11:50:13;;;;;;;6.78;4.58;;;21.60;93.90;;;;;;938034;149;27349;-76
2023/10/12 11:52:40;;;;;;;7.62;4.80;;;21.60;94.20;;;;;;937620;149;27323;-76
2023/10/12 11:55:18;;;;;;;7.83;4.45;;;21.70;94.40;;;;;;940057;149;28048;-76
2023/10/12 11:57:31;;;;;;;8.03;4.33;;;21.70;94.20;;;;;;939722;149;27282;-76
2023/10/12 11:59:58;;;;;;;5.45;4.95;;;21.70;94.60;;;;;;939051;149;27796;-76
2023/10/12 12:02:26;;;;;;;4.30;3.92;;;21.70;94.70;;;;;;941314;149;27403;-76
2023/10/12 12:04:51;;;;;;;4.75;4.12;;;21.80;94.60;;;;;;938325;149;27473;-76
2023/10/12 12:07:18;;;;;;;6.30;4.28;;;21.70;94.60;;;;;;941342;149;27364;-76
2023/10/12 12:09:48;;;;;;;5.53;4.92;;;21.80;94.40;;;;;;938348;148;27500;-76
2023/10/12 12:12:16;;;;;;;6.20;4.47;;;21.80;94.60;;;;;;937861;149;27405;-76
2023/10/12 12:14:46;;;;;;;6.67;4.50;;;21.80;94.00;;;;;;940315;149;27366;-76
2023/10/12 12:17:07;;;;;;;4.95;4.55;;;21.80;93.90;;;;;;940374;149;27932;-76
2023/10/12 12:19:33;;;;;;;6.95;4.70;;;21.80;94.20;;;;;;939999;149;27353;-73
2023/10/12 12:22:00;;;;;;;6.00;4.58;;;21.80;94.10;;;;;;940735;149;27291;-74
2023/10/12 12:24:29;;;;;;;5.62;4.60;;;21.80;94.20;;;;;;940097;149;27368;-74
2023/10/12 12:26:53;;;;;;;6.58;4.83;;;21.70;94.50;;;;;;939824;149;27462;-77
2023/10/12 12:29:26;;;;;;;6.12;4.53;;;21.70;94.30;;;;;;938304;149;27354;-74
2023/10/12 12:31:49;;;;;;;5.00;4.50;;;21.70;94.40;;;;;;940847;149;27414;-73
2023/10/12 12:34:38;;;;;;;7.20;4.53;;;21.70;94.60;;;;;;939724;149;27381;-73
2023/10/12 12:36:42;;;;;;;6.40;4.60;;;21.70;94.80;;;;;;936643;149;27578;-73
2023/10/12 12:39:10;;;;;;;7.30;4.70;;;21.70;94.90;;;;;;939938;149;27351;-73
2023/10/12 12:41:35;;;;;;;7.08;4.72;;;21.70;95.20;;;;;;938260;149;27412;-74
2023/10/12 12:44:02;;;;;;;5.97;4.55;;;21.80;95.50;;;;;;940432;149;28338;-73
2023/10/12 12:46:32;;;;;;;4.85;4.45;;;21.80;95.40;;;;;;938462;149;27483;-76
2023/10/12 12:48:58;;;;;;;7.05;4.78;;;21.80;95.20;;;;;;938243;149;27458;-73
2023/10/12 12:51:25;;;;;;;5.85;4.83;;;21.80;95.00;;;;;;940118;149;27353;-72
2023/10/12 12:53:52;;;;;;;6.60;4.80;;;21.90;95.00;;;;;;940088;149;27431;-73
2023/10/12 12:56:18;;;;;;;6.12;5.25;;;21.90;95.00;;;;;;938140;149;27974;-75
2023/10/12 12:58:47;;;;;;;5.78;5.03;;;21.90;94.70;;;;;;940597;149;27443;-73
2023/10/12 13:01:17;;;;;;;9.75;5.40;;;21.90;94.30;;;;;;940584;149;27352;-72
2023/10/12 13:03:43;;;;;;;6.28;4.75;;;22.00;94.20;;;;;;940619;149;28093;-77
2023/10/12 13:06:09;;;;;;;7.92;5.10;;;22.00;94.60;;;;;;940267;149;27434;-73
2023/10/12 13:08:36;;;;;;;8.30;4.70;;;22.00;95.20;;;;;;938794;149;27728;-75
2023/10/12 13:11:05;;;;;;;5.70;5.00;;;22.00;94.90;;;;;;940000;149;27390;-72
2023/10/12 13:13:33;;;;;;;7.87;5.03;;;22.10;94.90;;;;;;940137;149;27711;-73
2023/10/12 13:15:56;;;;;;;5.75;5.05;;;22.10;94.80;;;;;;941843;149;27359;-72
2023/10/12 13:18:22;;;;;;;7.95;5.22;;;22.10;95.00;;;;;;940640;149;27317;-77
2023/10/12 13:20:49;;;;;;;6.45;4.37;;;22.20;94.60;;;;;;942575;149;27381;-73
2023/10/12 13:23:17;;;;;;;6.92;4.70;;;22.20;94.50;;;;;;942414;149;27377;-72
2023/10/12 13:25:42;;;;;;;5.80;5.03;;;22.30;94.30;;;;;;942793;149;27247;-73
2023/10/12 13:28:10;;;;;;;7.70;5.58;;;22.30;94.90;;;;;;942535;149;27362;-79
2023/10/12 13:30:35;;;;;;;6.95;5.05;;;22.30;95.00;;;;;;942248;149;27798;-73
2023/10/12 13:33:03;;;;;;;6.35;5.45;;;22.40;95.40;;;;;;944613;149;27253;-73
2023/10/12 13:38:09;;;;;;;5.92;4.72;;;22.50;96.10;;;;;;941068;149;27394;-73
2023/10/12 13:40:34;;;;;;;5.83;4.67;;;22.50;95.90;;;;;;942474;149;28351;-73
2023/10/12 13:43:34;;;;;;;8.40;5.00;;;22.60;96.30;;;;;;941211;149;27275;-72
2023/10/12 13:45:33;;;;;;;5.47;4.97;;;22.60;96.30;;;;;;935202;149;27372;-74
2023/10/12 13:48:00;;;;;;;6.25;4.90;;;22.70;95.50;;;;;;940322;149;27440;-74
2023/10/12 13:50:26;;;;;;;6.03;5.25;;;22.70;95.00;;;;;;940388;149;27275;-73
2023/10/12 13:52:53;;;;;;;6.12;5.15;;;22.70;95.30;;;;;;941063;149;27454;-76
2023/10/12 13:55:19;;;;;;;6.30;4.87;;;22.70;95.30;;;;;;942828;149;27332;-73
2023/10/12 13:57:55;;;;;;;8.20;4.83;;;22.70;95.30;;;;;;942031;149;27368;-76
2023/10/12 14:00:22;;;;;;;7.45;5.15;;;22.70;94.90;;;;;;940956;149;27349;-74
2023/10/12 14:02:47;;;;;;;6.75;5.37;;;22.70;94.90;;;;;;942273;149;27322;-76
2023/10/12 14:05:11;;;;;;;6.50;5.12;;;22.60;94.60;;;;;;940964;149;27314;-73
2023/10/12 14:07:38;;;;;;;7.40;4.90;;;22.60;94.70;;;;;;942426;149;27337;-72
2023/10/12 14:10:05;;;;;;;7.22;5.45;;;22.50;94.50;;;;;;942096;149;27299;-74
2023/10/12 14:12:33;;;;;;;6.33;4.67;;;22.40;94.40;;;;;;941823;149;27402;-77
2023/10/12 14:14:58;;;;;;;6.83;5.80;;;22.30;94.20;;;;;;942452;148;27387;-73
2023/10/12 14:17:24;;;;;;;7.55;5.55;;;22.20;94.50;;;;;;941877;149;27388;-76